Terminal Aerodrome Forecast
Issued by NWS Cleveland, OH

Home | Current Version | Previous Version | Text Only | Print | Product List | Glossary On
Versions: 1 2 3 4 5 6 7 8 9 10 11 12 13 14 15 16 17 18 19 20
000
FTUS41 KCLE 210300 AAA
TAFERI
TAF AMD
KERI 210327Z 2103/2124 23015G25KT P6SM BKN070
     FM211400 23015G25KT P6SM SCT035 BKN050
     FM211700 23020G35KT P6SM VCSH BKN060
     FM212300 22015KT P6SM BKN080=

USA.gov is the U.S. government's official web portal to all federal, state and local government web resources and services.